Time;durP1;ratioP1;P1;durP2;ratioP2;P2;SDS_P1;SDS_P2;PMS_P1;PMS_P2;Temp;Humidity;BMP_temperature;BMP_pressure;BME280_temperature;BME280_humidity;BME280_pressure;Samples;Min_cycle;Max_cycle;Signal;HPM_P1;HPM_P2
2022/01/20 00:03:36;;;;;;;8.65;2.42;;;;;;;19.84;33.15;102489.84;7313317;19;137474;-65
2022/01/20 00:28:12;;;;;;;6.10;2.25;;;;;;;19.65;33.07;102498.00;7315754;19;128809;-65
2022/01/20 00:38:19;;;;;;;5.70;2.22;;;;;;;19.62;33.38;102505.91;7313129;19;129151;-65
2022/01/20 00:40:46;;;;;;;6.13;2.30;;;;;;;19.58;33.58;102497.13;7316647;19;128963;-65
2022/01/20 00:43:13;;;;;;;5.75;2.30;;;;;;;19.59;33.35;102504.41;7313302;19;131264;-65
2022/01/20 00:45:40;;;;;;;7.47;2.45;;;;;;;19.58;33.39;102501.84;7317497;19;131112;-65
2022/01/20 00:48:07;;;;;;;5.05;1.88;;;;;;;19.56;33.33;102499.28;7311445;19;128905;-66
2022/01/20 00:50:38;;;;;;;6.60;2.30;;;;;;;19.55;33.48;102507.81;7316668;19;129408;-65
2022/01/20 00:53:04;;;;;;;6.15;2.35;;;;;;;19.53;33.32;102511.66;7312831;19;131189;-65
2022/01/20 00:55:32;;;;;;;8.27;2.40;;;;;;;19.53;33.59;102516.38;7314269;19;131906;-65
2022/01/20 00:57:58;;;;;;;9.05;2.58;;;;;;;19.50;33.73;102527.91;7314094;19;129721;-65
2022/01/20 01:00:25;;;;;;;6.72;2.08;;;;;;;19.49;33.30;102515.94;7313356;19;129173;-65
2022/01/20 01:02:52;;;;;;;8.75;2.28;;;;;;;19.48;33.35;102519.78;7314377;19;131482;-65
2022/01/20 01:05:19;;;;;;;5.90;2.10;;;;;;;19.47;33.56;102517.22;7312905;19;131034;-65
2022/01/20 01:07:54;;;;;;;6.07;2.10;;;;;;;19.46;33.57;102515.50;7317469;19;128846;-65
2022/01/20 01:10:25;;;;;;;7.88;2.50;;;;;;;19.45;33.55;102513.78;7311013;19;128958;-65
2022/01/20 01:13:07;;;;;;;6.28;2.00;;;;;;;19.43;33.81;102515.94;7314416;19;131955;-65
2022/01/20 01:15:39;;;;;;;7.25;2.33;;;;;;;19.43;33.59;102521.50;7312597;19;132017;-65
2022/01/20 01:23:30;;;;;;;5.15;2.30;;;;;;;19.40;33.42;102516.38;7310466;19;132329;-65
2022/01/20 01:25:58;;;;;;;6.70;2.20;;;;;;;19.38;33.93;102530.47;7315100;19;131025;-65
2022/01/20 01:28:29;;;;;;;5.32;2.38;;;;;;;19.37;33.96;102526.81;7312613;19;130960;-65
2022/01/20 01:33:26;;;;;;;6.57;2.13;;;;;;;19.34;33.78;102535.56;7311833;19;131146;-65
2022/01/20 01:35:57;;;;;;;4.32;2.35;;;;;;;19.34;33.51;102532.78;7311088;19;131662;-65
2022/01/20 01:40:51;;;;;;;7.10;2.42;;;;;;;19.31;33.50;102538.78;7309837;19;130002;-65
2022/01/20 01:43:25;;;;;;;4.68;2.05;;;;;;;19.30;33.80;102545.41;7305910;19;131064;-65
2022/01/20 01:45:52;;;;;;;4.90;1.75;;;;;;;19.29;33.63;102542.81;7310804;19;132954;-65
2022/01/20 01:48:19;;;;;;;7.45;2.00;;;;;;;19.27;33.82;102540.25;7315296;19;132480;-65
2022/01/20 01:50:46;;;;;;;4.70;1.80;;;;;;;19.27;34.01;102533.84;7310989;19;129001;-65
2022/01/20 01:53:14;;;;;;;8.68;2.70;;;;;;;19.26;33.98;102541.31;7312301;19;131191;-65
2022/01/20 01:55:42;;;;;;;7.85;2.50;;;;;;;19.24;33.75;102545.38;7311055;19;131060;-65
2022/01/20 01:58:09;;;;;;;6.47;2.30;;;;;;;19.22;33.83;102548.34;7311199;19;128973;-65
2022/01/20 02:00:36;;;;;;;4.82;1.80;;;;;;;19.22;34.03;102549.22;7314698;19;129056;-65
2022/01/20 02:03:03;;;;;;;5.18;1.98;;;;;;;19.21;33.78;102550.28;7309255;19;131017;-65
2022/01/20 02:05:31;;;;;;;5.15;1.92;;;;;;;19.21;33.98;102566.06;7315061;19;131107;-65
2022/01/20 02:18:52;;;;;;;7.97;2.05;;;;;;;19.14;33.89;102531.88;7314254;19;128882;-65
2022/01/20 02:21:19;;;;;;;6.05;2.35;;;;;;;19.13;33.82;102535.72;7310680;19;129990;-65
2022/01/20 02:23:47;;;;;;;5.03;1.73;;;;;;;19.12;33.76;102539.56;7314210;19;131405;-65
2022/01/20 02:26:13;;;;;;;3.75;1.65;;;;;;;19.11;33.99;102548.94;7309742;19;131395;-65
2022/01/20 02:28:40;;;;;;;7.40;2.30;;;;;;;19.10;33.82;102550.88;7311863;19;129024;-65
2022/01/20 02:31:07;;;;;;;5.65;2.22;;;;;;;19.08;33.83;102556.63;7309881;19;128881;-65
2022/01/20 02:33:34;;;;;;;5.45;2.10;;;;;;;19.08;33.56;102553.84;7310134;19;132817;-65
2022/01/20 02:36:07;;;;;;;6.70;2.40;;;;;;;19.08;34.06;102551.06;7312898;19;131057;-65
2022/01/20 02:38:42;;;;;;;5.00;1.80;;;;;;;19.06;33.93;102544.91;7309932;19;129291;-65
2022/01/20 02:46:44;;;;;;;6.28;2.10;;;;;;;19.04;33.66;102548.94;7306551;19;131356;-65
2022/01/20 02:49:15;;;;;;;5.95;1.98;;;;;;;19.04;33.91;102544.25;7312792;19;128794;-65
2022/01/20 02:51:47;;;;;;;4.55;1.80;;;;;;;19.04;33.83;102546.16;7306784;19;129188;-65
2022/01/20 02:54:14;;;;;;;5.05;1.80;;;;;;;19.02;34.05;102549.16;7312113;19;131532;-65
2022/01/20 02:56:41;;;;;;;5.30;1.80;;;;;;;19.02;33.99;102549.16;7309392;19;131952;-65
2022/01/20 02:59:07;;;;;;;9.23;2.17;;;;;;;19.02;34.03;102554.69;7311427;19;132075;-65
2022/01/20 03:01:34;;;;;;;5.03;2.15;;;;;;;19.01;33.89;102550.22;7310816;19;128931;-65
2022/01/20 03:04:03;;;;;;;3.70;1.65;;;;;;;19.00;34.10;102544.88;7309178;19;131186;-65
2022/01/20 03:06:30;;;;;;;4.68;2.05;;;;;;;18.98;33.92;102553.41;7311852;19;131996;-65
2022/01/20 03:08:57;;;;;;;5.88;1.92;;;;;;;18.95;34.08;102553.84;7307670;19;128969;-65
2022/01/20 03:11:24;;;;;;;6.07;2.28;;;;;;;18.95;33.91;102545.50;7311438;19;128755;-65
2022/01/20 03:13:50;;;;;;;6.53;2.60;;;;;;;18.94;33.59;102552.13;7308639;19;132075;-65
2022/01/20 03:16:17;;;;;;;6.38;1.95;;;;;;;18.93;33.78;102561.50;7309506;19;131681;-65
2022/01/20 03:18:44;;;;;;;7.85;1.80;;;;;;;18.92;33.84;102559.78;7312109;19;131300;-65
2022/01/20 03:21:11;;;;;;;8.27;2.05;;;;;;;18.90;33.51;102562.75;7313174;19;134558;-65
2022/01/20 03:23:37;;;;;;;4.20;1.58;;;;;;;18.88;33.35;102556.59;7317149;19;131158;-65
2022/01/20 03:26:04;;;;;;;5.63;1.90;;;;;;;18.88;33.41;102558.47;7314495;19;131428;-65
2022/01/20 03:28:31;;;;;;;5.35;2.00;;;;;;;18.87;33.45;102549.31;7318583;19;130802;-65
2022/01/20 03:30:57;;;;;;;4.22;1.48;;;;;;;18.86;33.82;102543.97;7313733;19;128823;-65
2022/01/20 03:33:26;;;;;;;8.80;2.20;;;;;;;18.85;33.72;102542.25;7317358;19;131150;-65
2022/01/20 03:35:53;;;;;;;5.20;1.60;;;;;;;18.85;33.59;102531.16;7314319;19;131000;-65
2022/01/20 03:38:20;;;;;;;4.68;1.90;;;;;;;18.84;33.65;102530.31;7316897;19;128950;-65
2022/01/20 03:40:47;;;;;;;4.88;1.63;;;;;;;18.84;33.31;102523.91;7315677;19;132316;-65
2022/01/20 03:43:13;;;;;;;6.65;2.22;;;;;;;18.83;33.82;102522.22;7315625;19;131276;-65
2022/01/20 03:45:42;;;;;;;6.32;1.50;;;;;;;18.82;33.63;102532.44;7317029;19;131095;-65
2022/01/20 03:48:11;;;;;;;4.45;1.70;;;;;;;18.83;33.75;102533.31;7314552;19;130667;-65
2022/01/20 03:53:25;;;;;;;4.63;1.87;;;;;;;18.80;33.90;102545.66;7314422;19;132272;-65
2022/01/20 03:55:52;;;;;;;4.28;1.55;;;;;;;18.82;33.56;102554.63;7316086;19;131096;-65
2022/01/20 03:58:18;;;;;;;3.08;1.40;;;;;;;18.80;33.84;102544.81;7315259;19;128881;-66
2022/01/20 04:00:45;;;;;;;3.53;1.40;;;;;;;18.81;33.68;102554.84;7314897;19;128785;-65
2022/01/20 04:03:14;;;;;;;5.25;1.70;;;;;;;18.81;33.58;102552.06;7315237;19;131118;-65
2022/01/20 04:08:42;;;;;;;5.38;1.52;;;;;;;18.77;33.50;102546.06;7316082;19;129077;-65
2022/01/20 04:11:12;;;;;;;3.80;1.48;;;;;;;18.76;33.73;102549.94;7314617;19;130034;-65
2022/01/20 04:13:39;;;;;;;9.65;1.85;;;;;;;18.75;33.55;102565.69;7316118;19;131082;-65
2022/01/20 04:16:15;;;;;;;3.47;1.40;;;;;;;18.75;33.59;102560.16;7313731;19;131079;-65
2022/01/20 04:18:52;;;;;;;5.15;1.73;;;;;;;18.74;33.75;102558.44;7313483;19;128900;-65
2022/01/20 04:21:30;;;;;;;3.40;1.42;;;;;;;18.73;33.36;102544.78;7317752;19;128952;-65
2022/01/20 04:24:00;;;;;;;3.53;1.50;;;;;;;18.72;33.75;102549.47;7310980;19;131246;-65
2022/01/20 04:26:28;;;;;;;5.05;1.75;;;;;;;18.71;33.41;102552.47;7316190;19;132589;-65
2022/01/20 04:28:56;;;;;;;4.18;1.38;;;;;;;18.70;33.59;102557.16;7313685;19;128910;-65
2022/01/20 04:31:24;;;;;;;4.22;1.45;;;;;;;18.70;33.56;102554.38;7314699;19;128693;-65
2022/01/20 04:33:52;;;;;;;4.45;1.55;;;;;;;18.69;33.51;102555.44;7312973;19;131541;-65
2022/01/20 04:36:19;;;;;;;5.80;1.90;;;;;;;18.69;33.54;102558.22;7313460;19;131038;-65
2022/01/20 04:38:46;;;;;;;4.22;1.60;;;;;;;18.68;33.72;102553.75;7316332;19;128907;-65
2022/01/20 04:41:13;;;;;;;3.33;1.40;;;;;;;18.68;33.52;102559.28;7312286;19;130195;-65
2022/01/20 04:43:39;;;;;;;3.88;1.40;;;;;;;18.67;33.83;102554.78;7315119;19;131971;-65
2022/01/20 04:48:50;;;;;;;3.38;1.50;;;;;;;18.67;33.55;102567.78;7316097;19;128738;-65
2022/01/20 04:59:26;;;;;;;3.25;1.35;;;;;;;18.74;33.78;102552.88;7309640;19;128982;-65
2022/01/20 05:01:53;;;;;;;3.78;1.40;;;;;;;18.81;33.56;102550.16;7315575;19;129063;-65
2022/01/20 05:04:21;;;;;;;4.43;1.75;;;;;;;18.94;33.43;102546.56;7311587;19;131976;-66
2022/01/20 05:06:48;;;;;;;3.55;1.50;;;;;;;19.07;33.17;102552.16;7314511;19;131052;-65
2022/01/20 05:09:19;;;;;;;3.35;1.10;;;;;;;19.21;32.97;102547.50;7312347;19;130469;-65
2022/01/20 05:11:51;;;;;;;3.38;1.25;;;;;;;19.41;33.01;102545.84;7313524;19;129347;-65
2022/01/20 05:14:21;;;;;;;2.60;1.17;;;;;;;19.61;32.98;102546.69;7315763;19;131273;-65
2022/01/20 05:16:48;;;;;;;4.65;1.25;;;;;;;19.84;32.79;102559.28;7311010;19;131012;-65
2022/01/20 05:19:14;;;;;;;3.10;1.20;;;;;;;20.05;32.60;102566.56;7316022;19;128925;-65
2022/01/20 05:21:41;;;;;;;2.53;1.27;;;;;;;20.28;32.14;102568.00;7311595;19;129226;-66
2022/01/20 05:24:08;;;;;;;3.47;1.10;;;;;;;20.50;31.69;102574.16;7313736;19;132343;-65
2022/01/20 05:26:34;;;;;;;4.28;1.50;;;;;;;20.72;31.85;102584.97;7313340;19;131039;-65
2022/01/20 05:29:01;;;;;;;3.03;1.20;;;;;;;20.90;31.38;102582.34;7313727;19;128953;-65
2022/01/20 05:31:28;;;;;;;3.22;1.45;;;;;;;21.10;31.10;102586.94;7311434;19;128953;-65
2022/01/20 05:33:55;;;;;;;4.00;1.00;;;;;;;21.25;30.93;102583.00;7311913;19;131231;-65
2022/01/20 05:36:22;;;;;;;3.20;1.50;;;;;;;21.35;30.62;102572.22;7314439;19;131876;-66
2022/01/20 05:38:48;;;;;;;2.05;1.23;;;;;;;21.41;30.45;102571.34;7311226;19;131421;-66
2022/01/20 05:41:15;;;;;;;3.65;1.20;;;;;;;21.43;30.67;102580.31;7313570;19;129034;-65
2022/01/20 05:43:42;;;;;;;3.47;1.30;;;;;;;21.44;30.56;102587.59;7309065;19;131847;-65
2022/01/20 05:46:09;;;;;;;1.58;0.80;;;;;;;21.41;30.36;102599.19;7314544;19;131025;-65
2022/01/20 05:48:45;;;;;;;1.55;0.98;;;;;;;21.36;30.83;102608.19;7311303;19;129925;-65
2022/01/20 05:51:12;;;;;;;3.65;1.38;;;;;;;21.30;30.86;102622.16;7310397;19;130176;-65
2022/01/20 05:53:39;;;;;;;4.00;1.20;;;;;;;21.25;30.80;102619.19;7310715;19;131117;-65
2022/01/20 05:56:07;;;;;;;2.65;1.30;;;;;;;21.16;30.51;102611.13;7310268;19;131392;-65
2022/01/20 05:58:36;;;;;;;4.82;1.30;;;;;;;21.09;30.51;102615.84;7315045;19;128910;-65
2022/01/20 06:01:07;;;;;;;3.35;1.30;;;;;;;21.01;30.30;102624.47;7310582;19;129037;-65
2022/01/20 06:03:37;;;;;;;5.78;2.00;;;;;;;20.93;30.56;102630.25;7313136;19;131195;-65
2022/01/20 06:06:11;;;;;;;2.33;1.13;;;;;;;20.83;30.51;102626.03;7308415;19;131068;-66
2022/01/20 06:08:38;;;;;;;4.03;1.25;;;;;;;20.73;30.63;102640.38;7313545;19;129646;-65
2022/01/20 06:11:06;;;;;;;4.90;1.70;;;;;;;20.65;30.74;102650.88;7307857;19;129780;-65
2022/01/20 06:13:32;;;;;;;3.42;1.50;;;;;;;20.55;30.67;102643.88;7309991;19;131849;-66
2022/01/20 06:16:00;;;;;;;7.78;1.40;;;;;;;20.48;30.84;102634.66;7309163;19;131044;-66
2022/01/20 06:18:27;;;;;;;4.60;1.42;;;;;;;20.40;30.70;102648.81;7310029;19;136206;-66
2022/01/20 06:20:55;;;;;;;9.07;1.40;;;;;;;20.34;30.83;102649.66;7309931;19;129748;-65
2022/01/20 06:23:24;;;;;;;6.50;1.67;;;;;;;20.26;30.79;102657.16;7308140;19;131088;-65
2022/01/20 06:25:51;;;;;;;7.90;1.80;;;;;;;20.20;30.80;102658.00;7312830;19;131072;-65
2022/01/20 06:28:19;;;;;;;5.80;1.52;;;;;;;20.20;30.88;102655.22;7308194;19;129569;-65
2022/01/20 06:30:46;;;;;;;3.72;1.63;;;;;;;20.23;30.87;102648.41;7311294;19;129536;-65
2022/01/20 06:33:14;;;;;;;5.40;1.52;;;;;;;20.31;30.57;102650.94;7306218;19;131340;-65
2022/01/20 06:35:41;;;;;;;5.40;1.50;;;;;;;20.44;30.51;102666.75;7308303;19;131883;-65
2022/01/20 06:38:07;;;;;;;4.47;1.25;;;;;;;20.62;30.26;102676.34;7308257;19;129034;-65
2022/01/20 06:40:34;;;;;;;4.45;1.60;;;;;;;20.81;30.11;102682.97;7307969;19;129519;-65
2022/01/20 06:43:02;;;;;;;7.53;1.80;;;;;;;21.01;29.92;102686.53;7310638;19;131493;-65
2022/01/20 06:45:29;;;;;;;4.65;1.33;;;;;;;21.20;29.88;102697.81;7307140;19;131862;-65
2022/01/20 06:47:56;;;;;;;5.45;1.48;;;;;;;21.40;29.34;102703.28;7312881;19;128978;-66
2022/01/20 06:50:23;;;;;;;5.65;1.60;;;;;;;21.56;29.56;102706.63;7303132;19;128972;-65
2022/01/20 06:52:50;;;;;;;3.65;1.30;;;;;;;21.71;29.42;102707.19;7304390;19;131143;-65
2022/01/20 06:55:17;;;;;;;3.47;1.10;;;;;;;21.83;29.37;102699.81;7315285;19;132804;-65
2022/01/20 06:57:44;;;;;;;5.47;1.65;;;;;;;21.95;29.24;102693.53;7317522;19;131967;-65
2022/01/20 07:00:14;;;;;;;4.50;1.52;;;;;;;22.05;28.68;102693.84;7314981;19;129351;-65
2022/01/20 07:02:42;;;;;;;5.15;1.85;;;;;;;22.15;28.82;102701.72;7315500;19;133724;-65
2022/01/20 07:05:10;;;;;;;3.92;1.38;;;;;;;22.24;29.05;102708.75;7317331;19;132219;-65
2022/01/20 07:07:38;;;;;;;4.00;1.85;;;;;;;22.32;29.00;102713.19;7315194;19;129057;-65
2022/01/20 07:10:06;;;;;;;6.22;1.33;;;;;;;22.40;28.47;102734.34;7320362;19;128926;-65
2022/01/20 07:12:33;;;;;;;3.92;1.30;;;;;;;22.45;28.93;102731.75;7314903;19;131347;-65
2022/01/20 07:15:00;;;;;;;3.63;1.50;;;;;;;22.52;28.95;102740.06;7318047;19;131971;-65
2022/01/20 07:17:26;;;;;;;5.65;1.58;;;;;;;22.56;28.67;102732.91;7315404;19;129507;-65
2022/01/20 07:19:53;;;;;;;3.90;1.42;;;;;;;22.61;28.80;102737.78;7317970;19;129069;-65
2022/01/20 07:22:20;;;;;;;6.03;1.88;;;;;;;22.64;28.64;102752.16;7314145;19;132026;-65
2022/01/20 07:24:47;;;;;;;6.03;1.40;;;;;;;22.67;28.54;102759.22;7315318;19;130999;-65
2022/01/20 07:27:15;;;;;;;5.43;1.52;;;;;;;22.65;28.91;102759.41;7318205;19;130064;-65
2022/01/20 07:29:41;;;;;;;5.30;1.65;;;;;;;22.62;28.62;102759.91;7314380;19;129093;-65
2022/01/20 07:32:08;;;;;;;4.05;1.38;;;;;;;22.57;28.96;102759.72;7318166;19;132396;-65
2022/01/20 07:34:35;;;;;;;3.40;1.40;;;;;;;22.50;28.50;102768.16;7312231;19;131584;-66
2022/01/20 07:37:04;;;;;;;5.93;1.60;;;;;;;22.43;28.84;102768.22;7316476;19;129582;-66
2022/01/20 07:39:31;;;;;;;2.80;1.20;;;;;;;22.35;29.17;102770.41;7312409;19;129155;-66
2022/01/20 07:41:59;;;;;;;3.40;1.35;;;;;;;22.25;29.11;102782.94;7317263;19;131311;-66
2022/01/20 07:44:26;;;;;;;6.55;1.60;;;;;;;22.16;29.22;102777.81;7314806;19;131492;-66
2022/01/20 07:46:53;;;;;;;5.07;1.58;;;;;;;22.07;29.07;102780.91;7315877;19;128890;-66
2022/01/20 07:49:20;;;;;;;3.38;1.48;;;;;;;21.98;29.63;102790.59;7318573;19;128940;-66
2022/01/20 07:51:47;;;;;;;3.08;1.50;;;;;;;21.88;29.34;102793.03;7315451;19;131616;-66
2022/01/20 07:54:13;;;;;;;3.83;1.42;;;;;;;21.79;29.60;102806.38;7318618;19;132049;-66
2022/01/20 07:56:41;;;;;;;5.90;1.50;;;;;;;21.70;29.48;102804.91;7313682;19;128943;-66
2022/01/20 07:59:08;;;;;;;2.75;1.30;;;;;;;21.61;29.86;102798.75;7316627;19;128848;-66
2022/01/20 08:01:35;;;;;;;3.85;1.27;;;;;;;21.50;29.61;102795.56;7314339;19;131041;-65
2022/01/20 08:04:02;;;;;;;5.18;1.65;;;;;;;21.43;30.17;102788.28;7316151;19;131098;-65
2022/01/20 08:06:29;;;;;;;4.53;1.50;;;;;;;21.32;30.00;102795.38;7310818;19;129937;-65
2022/01/20 08:08:56;;;;;;;3.72;1.42;;;;;;;21.21;30.07;102799.72;7303557;19;129078;-65
2022/01/20 08:11:23;;;;;;;5.10;1.60;;;;;;;21.12;30.24;102798.22;7313396;19;131206;-65
2022/01/20 08:13:49;;;;;;;5.10;1.50;;;;;;;21.04;30.51;102789.03;7312922;19;131036;-65
2022/01/20 08:16:16;;;;;;;6.93;1.60;;;;;;;20.99;30.84;102785.22;7316229;19;130112;-66
2022/01/20 08:18:43;;;;;;;6.22;1.65;;;;;;;20.95;30.79;102790.34;7311315;19;129111;-65
2022/01/20 08:21:10;;;;;;;5.55;1.70;;;;;;;20.90;30.53;102798.47;7313642;19;131342;-66
2022/01/20 08:23:36;;;;;;;7.25;1.83;;;;;;;20.87;30.95;102805.34;7313159;19;131384;-65
2022/01/20 08:26:03;;;;;;;7.93;2.08;;;;;;;20.84;30.99;102800.22;7314327;19;129334;-65
2022/01/20 08:28:30;;;;;;;5.20;1.58;;;;;;;20.83;30.85;102804.06;7315791;19;129609;-66
2022/01/20 08:30:57;;;;;;;4.90;1.65;;;;;;;20.82;30.82;102813.47;7315698;19;130615;-65
2022/01/20 08:33:24;;;;;;;5.47;1.60;;;;;;;20.81;31.20;102810.91;7319107;19;130502;-66
2022/01/20 08:35:51;;;;;;;7.15;1.83;;;;;;;20.79;31.42;102819.50;7315085;19;128911;-66
2022/01/20 08:38:18;;;;;;;6.45;1.30;;;;;;;20.77;31.10;102809.63;7317872;19;128888;-66
2022/01/20 08:40:45;;;;;;;10.63;1.60;;;;;;;20.75;31.41;102818.16;7313929;19;131215;-65
2022/01/20 08:43:12;;;;;;;3.75;1.40;;;;;;;20.74;31.21;102825.63;7317201;19;130577;-65
2022/01/20 08:45:39;;;;;;;4.32;1.50;;;;;;;20.73;31.29;102831.44;7314035;19;130787;-65
2022/01/20 08:48:08;;;;;;;5.22;1.60;;;;;;;20.74;31.32;102833.13;7316348;19;135923;-65
2022/01/20 08:50:35;;;;;;;7.57;1.65;;;;;;;20.77;31.76;102840.22;7312989;19;130509;-65
2022/01/20 08:53:02;;;;;;;3.00;1.45;;;;;;;20.80;31.40;102840.63;7315342;19;130543;-65
2022/01/20 08:55:29;;;;;;;3.90;1.40;;;;;;;20.87;31.86;102849.84;7317945;19;129888;-66
2022/01/20 08:57:57;;;;;;;4.68;1.38;;;;;;;21.01;31.27;102849.84;7314738;19;131456;-65
2022/01/20 09:00:28;;;;;;;4.03;1.60;;;;;;;21.16;31.31;102850.47;7316639;19;130731;-66
2022/01/20 09:02:56;;;;;;;3.20;1.27;;;;;;;21.33;31.41;102852.78;7311757;19;131431;-65
2022/01/20 09:05:24;;;;;;;5.25;1.50;;;;;;;21.47;30.80;102853.63;7315537;19;129214;-65
2022/01/20 09:07:50;;;;;;;3.05;1.50;;;;;;;21.63;30.96;102861.50;7312919;19;129225;-66
2022/01/20 09:10:21;;;;;;;8.32;1.52;;;;;;;21.77;30.70;102870.69;7316257;19;130578;-65
2022/01/20 09:15:35;;;;;;;3.15;1.10;;;;;;;21.99;30.33;102873.13;7314108;19;129545;-66
2022/01/20 09:18:08;;;;;;;5.32;1.48;;;;;;;22.03;30.72;102879.97;7313943;19;128870;-66
2022/01/20 09:20:36;;;;;;;3.65;1.70;;;;;;;22.05;30.37;102890.91;7313191;19;130819;-65
2022/01/20 09:23:04;;;;;;;3.65;1.40;;;;;;;22.05;30.29;102899.28;7314928;19;130864;-65
2022/01/20 09:25:31;;;;;;;3.65;1.20;;;;;;;22.06;30.22;102901.81;7310742;19;129028;-66
2022/01/20 09:27:59;;;;;;;3.78;1.30;;;;;;;22.06;30.55;102901.81;7313482;19;128976;-65
2022/01/20 09:30:27;;;;;;;4.68;1.45;;;;;;;22.08;30.19;102896.03;7310553;19;130482;-65
2022/01/20 09:35:37;;;;;;;5.07;1.75;;;;;;;22.24;30.21;102891.91;7314602;19;129011;-65
2022/01/20 09:38:05;;;;;;;6.57;1.50;;;;;;;22.32;30.03;102888.00;7313246;19;128987;-65
2022/01/20 09:40:34;;;;;;;5.20;1.30;;;;;;;22.38;29.78;102890.75;7315453;19;131231;-65
2022/01/20 09:43:02;;;;;;;4.68;1.40;;;;;;;22.42;29.73;102880.00;7312180;19;130556;-65
2022/01/20 09:45:29;;;;;;;4.05;1.20;;;;;;;22.46;29.54;102883.19;7314861;19;129572;-65
2022/01/20 09:47:56;;;;;;;4.53;1.20;;;;;;;22.47;29.77;102882.09;7312767;19;130488;-65
2022/01/20 09:50:24;;;;;;;5.88;2.00;;;;;;;22.49;29.46;102882.75;7313883;19;130588;-65
2022/01/20 09:52:54;;;;;;;4.00;1.77;;;;;;;22.50;29.59;102892.81;7311690;19;131367;-65
2022/01/20 09:55:21;;;;;;;4.70;1.92;;;;;;;22.49;29.31;102893.91;7313557;19;128881;-65
2022/01/20 09:57:48;;;;;;;3.40;1.42;;;;;;;22.47;29.32;102907.22;7314629;19;129575;-65
2022/01/20 10:00:17;;;;;;;7.20;2.00;;;;;;;22.44;29.21;102909.38;7312824;19;130541;-65
2022/01/20 10:03:09;;;;;;;6.15;1.60;;;;;;;22.42;29.32;102916.25;7313421;19;130654;-65
2022/01/20 10:05:45;;;;;;;5.22;1.58;;;;;;;22.39;29.35;102923.16;7312504;19;128841;-65
2022/01/20 10:08:24;;;;;;;4.70;1.58;;;;;;;22.36;29.07;102929.16;7313768;19;129381;-65
2022/01/20 10:10:53;;;;;;;5.63;1.80;;;;;;;22.34;29.11;102934.09;7311825;19;131394;-65
2022/01/20 10:13:32;;;;;;;3.78;1.73;;;;;;;22.34;29.04;102941.63;7313113;19;131317;-64
2022/01/20 10:16:02;;;;;;;5.22;1.88;;;;;;;22.32;29.00;102936.25;7314842;19;129019;-65
2022/01/20 10:18:31;;;;;;;6.15;1.90;;;;;;;22.31;28.91;102942.91;7311782;19;129191;-65
2022/01/20 10:21:04;;;;;;;4.07;1.85;;;;;;;22.29;28.70;102945.06;7313661;19;131278;-65
2022/01/20 10:23:40;;;;;;;5.63;1.40;;;;;;;22.28;28.63;102947.00;7311281;19;131702;-65
2022/01/20 10:26:13;;;;;;;7.40;1.92;;;;;;;22.26;28.93;102960.31;7311646;19;130003;-65
2022/01/20 10:29:06;;;;;;;6.07;1.67;;;;;;;22.26;28.82;102957.50;7313481;19;128803;-65
2022/01/20 10:31:34;;;;;;;5.18;1.55;;;;;;;22.25;29.20;102949.38;7310825;19;131393;-65
2022/01/20 10:34:03;;;;;;;5.13;1.67;;;;;;;22.24;28.92;102945.72;7314344;19;130520;-65
2022/01/20 10:36:37;;;;;;;8.60;2.15;;;;;;;22.24;28.92;102958.81;7310233;19;129012;-65
2022/01/20 10:39:07;;;;;;;6.35;1.85;;;;;;;22.24;28.75;102961.63;7311992;19;128837;-65
2022/01/20 10:41:37;;;;;;;5.10;1.80;;;;;;;22.25;29.22;102960.53;7310585;19;131462;-64
2022/01/20 10:44:14;;;;;;;4.88;1.73;;;;;;;22.26;29.22;102968.66;7311327;19;130657;-65
2022/01/20 10:46:53;;;;;;;4.40;1.40;;;;;;;22.26;29.19;102967.81;7312381;19;129018;-65
2022/01/20 10:49:21;;;;;;;4.45;1.27;;;;;;;22.25;29.16;102960.53;7309921;19;129053;-65
2022/01/20 10:52:03;;;;;;;5.38;1.80;;;;;;;22.25;28.81;102971.69;7314000;19;130541;-65
2022/01/20 10:54:42;;;;;;;5.53;1.88;;;;;;;22.25;29.00;102957.75;7311252;19;130903;-65
2022/01/20 10:57:11;;;;;;;3.97;1.25;;;;;;;22.25;28.91;102971.69;7312207;19;129035;-65
2022/01/20 10:59:50;;;;;;;4.65;1.83;;;;;;;22.26;28.88;102967.81;7312601;19;129093;-65
2022/01/20 11:02:19;;;;;;;5.18;1.60;;;;;;;22.24;28.85;102976.38;7310471;19;131228;-65
2022/01/20 11:04:48;;;;;;;5.80;1.45;;;;;;;22.22;28.94;102972.97;7312930;19;130581;-65
2022/01/20 11:07:15;;;;;;;4.20;1.35;;;;;;;22.23;28.88;102973.84;7309977;19;129179;-65
2022/01/20 11:09:44;;;;;;;5.35;1.83;;;;;;;22.21;28.80;102973.19;7313431;19;128688;-65
2022/01/20 11:12:15;;;;;;;3.42;1.27;;;;;;;22.21;28.90;102975.97;7310508;19;130719;-65
2022/01/20 11:14:43;;;;;;;4.88;1.60;;;;;;;22.21;28.86;102975.97;7311362;19;130498;-65
2022/01/20 11:17:27;;;;;;;4.63;1.75;;;;;;;22.21;28.61;102976.84;7310041;19;129012;-65
2022/01/20 11:20:13;;;;;;;8.63;1.55;;;;;;;22.21;28.56;102975.97;7309235;19;128855;-64
2022/01/20 11:22:59;;;;;;;7.30;1.63;;;;;;;22.19;28.24;102969.75;7312537;19;130605;-65
2022/01/20 11:25:29;;;;;;;5.10;1.83;;;;;;;22.19;28.24;102978.09;7309598;19;130477;-65
2022/01/20 11:28:03;;;;;;;4.32;1.50;;;;;;;22.18;28.14;102968.03;7311648;19;129505;-65
2022/01/20 11:30:32;;;;;;;8.35;1.98;;;;;;;22.17;28.03;102966.31;7309470;19;129030;-65
2022/01/20 11:33:06;;;;;;;5.75;1.70;;;;;;;22.17;28.13;102966.31;7310396;19;131903;-65
2022/01/20 11:35:39;;;;;;;7.50;1.83;;;;;;;22.17;27.80;102969.09;7311769;19;130184;-65
2022/01/20 11:38:06;;;;;;;5.15;1.55;;;;;;;22.15;28.17;102979.63;7308628;19;130497;-65
2022/01/20 11:40:33;;;;;;;6.38;1.77;;;;;;;22.13;28.05;102961.19;7315148;19;129486;-65
2022/01/20 11:43:08;;;;;;;5.97;1.92;;;;;;;22.15;27.77;102968.50;7316421;19;131598;-65
2022/01/20 11:45:41;;;;;;;6.13;1.98;;;;;;;22.15;28.15;102972.13;7319128;19;130600;-65
2022/01/20 11:48:12;;;;;;;8.07;2.10;;;;;;;22.12;27.54;102965.06;7317503;19;128970;-65
2022/01/20 11:50:40;;;;;;;6.95;2.05;;;;;;;22.10;27.66;102957.97;7317748;19;128924;-65
2022/01/20 11:53:20;;;;;;;8.73;2.00;;;;;;;22.02;27.60;102961.88;7317629;19;130593;-65
2022/01/20 11:55:50;;;;;;;6.68;1.63;;;;;;;21.94;27.52;102959.31;7316087;19;130548;-65
2022/01/20 11:58:21;;;;;;;12.20;2.20;;;;;;;21.92;27.17;102961.47;7318605;19;128853;-65
2022/01/20 12:01:05;;;;;;;5.10;1.65;;;;;;;21.92;26.95;102964.25;7315754;19;128989;-65
2022/01/20 12:03:34;;;;;;;8.27;1.75;;;;;;;21.91;27.40;102968.16;7317966;19;130937;-65
2022/01/20 12:06:13;;;;;;;8.13;1.58;;;;;;;21.94;27.21;102959.31;7315589;19;130585;-65
2022/01/20 12:08:58;;;;;;;8.60;2.08;;;;;;;21.96;27.05;102957.19;7315586;19;129151;-65
2022/01/20 12:11:37;;;;;;;5.28;1.88;;;;;;;21.97;26.92;102950.53;7318642;19;128927;-65
2022/01/20 12:14:06;;;;;;;4.95;1.50;;;;;;;21.97;27.00;102943.00;7314111;19;130698;-65
2022/01/20 12:16:34;;;;;;;3.50;1.40;;;;;;;21.98;26.87;102941.94;7317924;19;131226;-65
2022/01/20 12:19:02;;;;;;;7.53;1.77;;;;;;;21.99;26.76;102945.59;7315474;19;129488;-65
2022/01/20 12:21:30;;;;;;;6.80;1.95;;;;;;;22.00;26.91;102940.88;7316777;19;129722;-65
2022/01/20 12:23:58;;;;;;;4.75;1.52;;;;;;;22.00;26.45;102938.97;7316746;19;130563;-65
2022/01/20 12:26:26;;;;;;;4.72;1.38;;;;;;;22.03;26.42;102940.44;7315694;19;130860;-65
2022/01/20 12:29:08;;;;;;;8.52;2.28;;;;;;;22.03;26.14;102932.91;7318801;19;129439;-65
2022/01/20 12:31:49;;;;;;;5.05;1.67;;;;;;;22.02;26.41;102920.09;7314535;19;129031;-65
2022/01/20 12:34:16;;;;;;;8.80;2.08;;;;;;;22.02;26.31;102928.44;7317402;19;131253;-65
2022/01/20 12:36:57;;;;;;;4.90;1.75;;;;;;;22.03;26.27;102913.41;7313245;19;130475;-65
2022/01/20 12:39:28;;;;;;;8.00;1.92;;;;;;;22.01;25.73;102915.59;7316687;19;129510;-65
2022/01/20 12:42:21;;;;;;;7.88;1.90;;;;;;;22.01;25.75;102914.72;7316570;19;129307;-65
2022/01/20 12:44:54;;;;;;;5.50;1.80;;;;;;;22.01;26.05;102915.59;7312239;19;130582;-65
2022/01/20 12:47:28;;;;;;;4.50;1.30;;;;;;;22.02;25.85;102914.50;7313914;19;130432;-65